createdAt,value
2017-09-19T00:00:32.095Z,18.04
2017-09-19T00:02:59.256Z,18.03
2017-09-19T00:05:26.391Z,18.03
2017-09-19T00:07:53.517Z,18.03
2017-09-19T00:10:20.681Z,18.03
2017-09-19T00:12:47.811Z,18.04
2017-09-19T00:15:14.974Z,18.04
2017-09-19T00:17:42.099Z,18.03
2017-09-19T00:20:09.260Z,18.03
2017-09-19T00:22:36.420Z,18.03
2017-09-19T00:25:03.583Z,18.03
2017-09-19T00:27:30.744Z,18.04
2017-09-19T00:29:57.904Z,18.03
2017-09-19T00:32:25.036Z,18.03
2017-09-19T00:34:52.158Z,18.03
2017-09-19T00:37:19.328Z,18.03
2017-09-19T00:39:46.493Z,18.04
2017-09-19T00:42:13.653Z,18.03
2017-09-19T00:44:40.783Z,18.04
2017-09-19T00:47:07.935Z,18.04
2017-09-19T00:49:35.096Z,18.03
2017-09-19T00:52:02.261Z,18.04
2017-09-19T00:54:29.387Z,18.04
2017-09-19T00:56:56.520Z,18.03
2017-09-19T00:59:23.682Z,18.03
2017-09-19T01:01:50.807Z,18.04
2017-09-19T01:04:17.968Z,18.04
2017-09-19T01:06:45.103Z,18.04
2017-09-19T01:09:12.269Z,18.04
2017-09-19T01:11:39.389Z,18.04
2017-09-19T01:14:06.788Z,18.04
2017-09-19T01:16:34.704Z,18.04
2017-09-19T01:19:01.836Z,18.04
2017-09-19T01:21:28.996Z,18.04
2017-09-19T01:23:56.119Z,18.04
2017-09-19T01:26:23.282Z,18.04
2017-09-19T01:28:50.439Z,18.04
2017-09-19T01:31:17.567Z,18.04
2017-09-19T01:33:44.744Z,18.04
2017-09-19T01:36:11.907Z,18.04
2017-09-19T01:38:39.032Z,18.04
2017-09-19T01:41:06.196Z,18.04
2017-09-19T01:43:33.315Z,18.04
2017-09-19T01:46:00.438Z,18.04
2017-09-19T01:48:27.566Z,18.04
2017-09-19T01:50:54.959Z,18.04
2017-09-19T01:53:22.847Z,18.04
2017-09-19T01:55:50.005Z,18.04
2017-09-19T01:58:17.165Z,18.04
2017-09-19T02:00:44.318Z,18.04
2017-09-19T02:03:11.480Z,18.04
2017-09-19T02:05:38.626Z,18.04
2017-09-19T02:08:05.779Z,18.04
2017-09-19T02:10:32.932Z,18.04
2017-09-19T02:13:00.095Z,18.04
2017-09-19T02:15:27.269Z,18.05
2017-09-19T02:17:54.418Z,18.05
2017-09-19T02:20:21.557Z,18.04
2017-09-19T02:22:48.701Z,18.05
2017-09-19T02:25:16.002Z,18.05
2017-09-19T02:27:43.164Z,18.04
2017-09-19T02:30:10.315Z,18.05
2017-09-19T02:32:37.462Z,18.05
2017-09-19T02:35:04.624Z,18.04
2017-09-19T02:37:32.057Z,18.04
2017-09-19T02:39:59.199Z,18.04
2017-09-19T02:42:26.337Z,18.04
2017-09-19T02:44:54.264Z,18.04
2017-09-19T02:47:21.416Z,18.05
2017-09-19T02:49:48.581Z,18.04
2017-09-19T02:52:15.728Z,18.05
2017-09-19T02:54:42.869Z,18.05
2017-09-19T02:57:10.009Z,18.04
2017-09-19T02:59:37.167Z,18.04
2017-09-19T03:02:04.313Z,18.05
2017-09-19T03:04:31.457Z,18.04
2017-09-19T03:06:58.607Z,18.05
2017-09-19T03:09:25.747Z,18.05
2017-09-19T03:11:52.924Z,18.05
2017-09-19T03:14:20.069Z,18.04
2017-09-19T03:16:47.205Z,18.05
2017-09-19T03:19:14.380Z,18.05
2017-09-19T03:21:41.521Z,18.04
2017-09-19T03:24:08.661Z,18.05
2017-09-19T03:26:35.819Z,18.05
2017-09-19T03:29:02.980Z,18.05
2017-09-19T03:31:30.121Z,18.05
2017-09-19T03:33:57.280Z,18.05
2017-09-19T03:36:24.439Z,18.05
2017-09-19T03:38:51.599Z,18.05
2017-09-19T03:41:18.755Z,18.05
2017-09-19T03:43:45.902Z,18.05
2017-09-19T03:46:13.045Z,18.04
2017-09-19T03:48:40.185Z,18.05
2017-09-19T03:51:07.350Z,18.05
2017-09-19T03:53:34.515Z,18.05
2017-09-19T03:56:01.653Z,18.05
2017-09-19T03:58:28.797Z,18.05
2017-09-19T04:00:55.956Z,18.05
2017-09-19T04:03:23.111Z,18.05
2017-09-19T04:05:50.258Z,18.05
2017-09-19T04:08:17.405Z,18.05
2017-09-19T04:10:44.564Z,18.05
2017-09-19T04:13:11.724Z,18.05
2017-09-19T04:15:38.866Z,18.05
2017-09-19T04:18:06.024Z,18.05
2017-09-19T04:20:33.255Z,18.05
2017-09-19T04:23:01.186Z,18.05
2017-09-19T04:25:28.367Z,18.04
2017-09-19T04:27:55.533Z,18.05
2017-09-19T04:30:22.699Z,18.05
2017-09-19T04:32:49.841Z,18.05
2017-09-19T04:35:16.995Z,18.06
2017-09-19T04:37:44.147Z,18.05
2017-09-19T04:40:11.295Z,18.05
2017-09-19T04:42:38.482Z,18.05
2017-09-19T04:45:05.629Z,18.05
2017-09-19T04:47:32.790Z,18.05
2017-09-19T04:49:59.936Z,18.05
2017-09-19T04:52:27.082Z,18.05
2017-09-19T04:54:54.248Z,18.05
2017-09-19T04:57:21.394Z,18.05
2017-09-19T04:59:48.555Z,18.05
2017-09-19T05:02:15.748Z,18.05
2017-09-19T05:04:42.894Z,18.05
2017-09-19T05:07:10.044Z,18.05
2017-09-19T05:09:37.208Z,18.06
2017-09-19T05:12:04.368Z,18.06
2017-09-19T05:14:31.788Z,18.05
2017-09-19T05:16:59.243Z,18.06
2017-09-19T05:19:27.167Z,18.06
2017-09-19T05:21:54.320Z,18.05
2017-09-19T05:24:21.477Z,18.06
2017-09-19T05:26:48.637Z,18.06
2017-09-19T05:29:15.930Z,18.06
2017-09-19T05:31:43.084Z,18.05
2017-09-19T05:34:10.251Z,18.07
2017-09-19T05:36:37.393Z,18.06
2017-09-19T05:39:04.546Z,18.06
2017-09-19T05:41:31.699Z,18.05
2017-09-19T05:43:58.852Z,18.06
2017-09-19T05:46:25.995Z,18.06
2017-09-19T05:48:53.138Z,18.05
2017-09-19T05:51:20.297Z,18.05
2017-09-19T05:53:47.460Z,18.06
2017-09-19T05:56:14.619Z,18.06
2017-09-19T05:58:41.772Z,18.06
2017-09-19T06:01:08.919Z,18.06
2017-09-19T06:03:36.077Z,18.06
2017-09-19T06:06:03.214Z,18.06
2017-09-19T06:08:30.357Z,18.06
2017-09-19T06:10:57.517Z,18.05
2017-09-19T06:13:24.667Z,18.07
2017-09-19T06:15:51.819Z,18.07
2017-09-19T06:18:18.954Z,18.06
2017-09-19T06:20:46.120Z,18.06
2017-09-19T06:23:13.256Z,18.07
2017-09-19T06:25:40.412Z,18.07
2017-09-19T06:28:07.556Z,18.06
2017-09-19T06:30:34.707Z,18.06
2017-09-19T06:33:01.895Z,18.07
2017-09-19T06:35:29.033Z,18.06
2017-09-19T06:37:56.188Z,18.07
2017-09-19T06:40:23.333Z,18.07
2017-09-19T06:42:51.309Z,18.07
2017-09-19T06:45:18.457Z,18.07
2017-09-19T06:47:45.589Z,18.07
2017-09-19T06:50:12.718Z,18.07
2017-09-19T06:52:39.885Z,18.07
2017-09-19T06:55:07.029Z,18.07
2017-09-19T06:57:34.180Z,18.07
2017-09-19T07:00:01.365Z,18.06
2017-09-19T07:02:29.292Z,18.07
2017-09-19T07:04:56.434Z,18.06
2017-09-19T07:07:23.580Z,18.06
2017-09-19T07:09:50.718Z,18.07
2017-09-19T07:12:17.856Z,18.07
2017-09-19T07:14:45.016Z,18.07
2017-09-19T07:17:12.153Z,18.08
2017-09-19T07:19:39.301Z,18.07
2017-09-19T07:22:06.441Z,18.07
2017-09-19T07:24:33.600Z,18.07
2017-09-19T07:27:00.743Z,18.07
2017-09-19T07:29:27.918Z,18.08
2017-09-19T07:31:55.073Z,18.08
2017-09-19T07:34:22.228Z,18.10
2017-09-19T07:36:49.383Z,18.12
2017-09-19T07:39:16.535Z,18.13
2017-09-19T07:41:43.671Z,18.14
2017-09-19T07:44:10.833Z,18.15
2017-09-19T07:46:37.966Z,18.16
2017-09-19T07:49:05.130Z,18.17
2017-09-19T07:51:32.292Z,18.17
2017-09-19T07:53:59.446Z,18.17
2017-09-19T07:56:26.585Z,18.15
2017-09-19T07:58:53.722Z,18.15
2017-09-19T08:01:20.862Z,18.14
2017-09-19T08:03:48.023Z,18.14
2017-09-19T08:06:15.177Z,18.13
2017-09-19T08:08:42.323Z,18.13
2017-09-19T08:11:09.483Z,18.13
2017-09-19T08:13:36.640Z,18.12
2017-09-19T08:16:03.778Z,18.13
2017-09-19T08:18:30.931Z,18.13
2017-09-19T08:20:58.087Z,18.12
2017-09-19T08:23:25.226Z,18.12
2017-09-19T08:25:52.419Z,18.12
2017-09-19T08:28:19.576Z,18.12
2017-09-19T08:30:46.744Z,18.12
2017-09-19T08:33:13.895Z,18.12
2017-09-19T08:35:41.047Z,18.11
2017-09-19T08:38:08.200Z,18.12
2017-09-19T08:40:35.352Z,18.11
2017-09-19T08:43:02.508Z,18.11
2017-09-19T08:45:29.668Z,18.12
2017-09-19T08:47:56.816Z,18.12
2017-09-19T08:50:23.958Z,18.11
2017-09-19T08:52:51.094Z,18.11
2017-09-19T08:55:18.238Z,18.11
2017-09-19T08:57:45.381Z,18.12
2017-09-19T09:00:12.534Z,18.11
2017-09-19T09:02:39.691Z,18.11
2017-09-19T09:05:06.824Z,18.11
2017-09-19T09:07:33.970Z,18.11
2017-09-19T09:10:01.106Z,18.11
2017-09-19T09:12:28.259Z,18.11
2017-09-19T09:14:55.398Z,18.11
2017-09-19T09:17:22.546Z,18.11
2017-09-19T09:19:49.704Z,18.10
2017-09-19T09:22:16.842Z,18.11
2017-09-19T09:24:43.999Z,18.11
2017-09-19T09:27:11.290Z,18.11
2017-09-19T09:29:39.202Z,18.11
2017-09-19T09:32:06.527Z,18.11
2017-09-19T09:34:33.952Z,18.11
2017-09-19T09:37:01.116Z,18.11
2017-09-19T09:39:29.022Z,18.11
2017-09-19T09:41:56.181Z,18.11
2017-09-19T09:44:23.319Z,18.10
2017-09-19T09:46:50.504Z,18.11
2017-09-19T09:49:17.643Z,18.11
2017-09-19T09:51:44.805Z,18.10
2017-09-19T09:54:11.956Z,18.11
2017-09-19T09:56:39.253Z,18.11
2017-09-19T09:59:06.420Z,18.11
2017-09-19T10:01:33.557Z,18.11
2017-09-19T10:04:00.756Z,18.11
2017-09-19T10:06:27.901Z,18.11
2017-09-19T10:08:55.056Z,18.12
2017-09-19T10:11:22.198Z,18.11
2017-09-19T10:13:49.373Z,18.11
2017-09-19T10:16:17.281Z,18.11
2017-09-19T10:18:44.441Z,18.11
2017-09-19T10:21:11.592Z,18.11
2017-09-19T10:23:39.182Z,18.11
2017-09-19T10:26:06.402Z,18.11
2017-09-19T10:28:33.537Z,18.11
2017-09-19T10:31:00.692Z,18.10
2017-09-19T10:33:28.036Z,18.11
2017-09-19T10:35:55.950Z,18.11
2017-09-19T10:38:23.091Z,18.11
2017-09-19T10:40:50.577Z,18.11
2017-09-19T10:43:17.883Z,18.11
2017-09-19T10:45:45.062Z,18.11
2017-09-19T10:48:12.244Z,18.11
2017-09-19T10:50:39.381Z,18.11
2017-09-19T10:53:06.552Z,18.12
2017-09-19T10:55:33.694Z,18.11
2017-09-19T10:58:01.705Z,18.11
2017-09-19T11:00:28.853Z,18.11
2017-09-19T11:02:55.990Z,18.11
2017-09-19T11:05:23.190Z,18.12
2017-09-19T11:07:50.349Z,18.11
2017-09-19T11:10:17.540Z,18.11
2017-09-19T11:12:44.678Z,18.12
2017-09-19T11:15:11.840Z,18.16
2017-09-19T11:17:38.996Z,18.17
2017-09-19T11:20:06.134Z,18.17
2017-09-19T11:22:33.288Z,18.18
2017-09-19T11:25:00.458Z,18.19
2017-09-19T11:27:27.622Z,18.20
2017-09-19T11:29:54.786Z,18.22
2017-09-19T11:32:21.957Z,18.24
2017-09-19T11:34:49.094Z,18.24
2017-09-19T11:37:16.413Z,18.24
2017-09-19T11:39:43.575Z,18.27
2017-09-19T11:42:10.725Z,18.26
2017-09-19T11:44:37.876Z,18.25
2017-09-19T11:47:05.023Z,18.23
2017-09-19T11:49:32.180Z,18.22
2017-09-19T11:51:59.330Z,18.21
2017-09-19T11:54:26.488Z,18.21
2017-09-19T11:56:53.621Z,18.21
2017-09-19T11:59:20.759Z,18.20
2017-09-19T12:01:47.915Z,18.20
2017-09-19T12:04:15.353Z,18.19
2017-09-19T12:06:42.493Z,18.19
2017-09-19T12:09:10.402Z,18.19
2017-09-19T12:11:37.542Z,18.19
2017-09-19T12:14:05.247Z,18.19
2017-09-19T12:16:33.296Z,18.18
2017-09-19T12:19:00.887Z,18.19
2017-09-19T12:21:28.029Z,18.19
2017-09-19T12:23:55.188Z,18.19
2017-09-19T12:26:22.329Z,18.19
2017-09-19T12:28:49.501Z,18.18
2017-09-19T12:31:17.380Z,18.19
2017-09-19T12:33:45.040Z,18.19
2017-09-19T12:36:12.226Z,18.18
2017-09-19T12:38:40.300Z,18.19
2017-09-19T12:41:08.148Z,18.18
2017-09-19T12:43:35.340Z,18.18
2017-09-19T12:46:02.481Z,18.23
2017-09-19T12:48:29.625Z,18.24
2017-09-19T12:50:56.803Z,18.25
2017-09-19T12:53:23.951Z,18.26
2017-09-19T12:55:51.093Z,18.28
2017-09-19T12:58:19.006Z,18.29
2017-09-19T13:00:46.252Z,18.30
2017-09-19T13:03:15.004Z,18.31
2017-09-19T13:05:42.933Z,18.33
2017-09-19T13:08:10.099Z,18.33
2017-09-19T13:10:37.255Z,18.34
2017-09-19T13:13:04.395Z,18.36
2017-09-19T13:15:31.591Z,18.36
2017-09-19T13:17:59.512Z,18.37
2017-09-19T13:20:26.653Z,18.38
2017-09-19T13:22:53.803Z,18.37
2017-09-19T13:25:20.964Z,18.38
2017-09-19T13:27:48.607Z,18.40
2017-09-19T13:30:15.808Z,18.40
2017-09-19T13:32:42.973Z,18.40
2017-09-19T13:35:10.113Z,18.41
2017-09-19T13:37:38.477Z,18.41
2017-09-19T13:40:05.636Z,18.41
2017-09-19T13:42:32.777Z,18.42
2017-09-19T13:45:00.029Z,18.43
2017-09-19T13:47:27.192Z,18.43
2017-09-19T13:49:54.338Z,18.43
2017-09-19T13:52:21.481Z,18.44
2017-09-19T13:54:49.094Z,18.44
2017-09-19T13:57:16.246Z,18.43
2017-09-19T13:59:43.396Z,18.42
2017-09-19T14:02:11.161Z,18.41
2017-09-19T14:04:38.338Z,18.41
2017-09-19T14:07:05.495Z,18.41
2017-09-19T14:09:32.656Z,18.41
2017-09-19T14:11:59.801Z,18.41
2017-09-19T14:14:26.955Z,18.40
2017-09-19T14:16:54.101Z,18.40
2017-09-19T14:19:21.253Z,18.40
2017-09-19T14:21:49.478Z,18.40
2017-09-19T14:24:16.947Z,18.40
2017-09-19T14:26:44.201Z,18.40
2017-09-19T14:29:11.728Z,18.40
2017-09-19T14:31:38.902Z,18.38
2017-09-19T14:34:06.264Z,18.39
2017-09-19T14:36:33.687Z,18.38
2017-09-19T14:39:01.612Z,18.37
2017-09-19T14:41:28.749Z,18.37
2017-09-19T14:43:55.894Z,18.36
2017-09-19T14:46:23.307Z,18.35
2017-09-19T14:48:50.768Z,18.36
2017-09-19T14:51:18.565Z,18.37
2017-09-19T14:53:45.738Z,18.39
2017-09-19T14:56:14.100Z,18.41
2017-09-19T14:58:41.312Z,18.43
2017-09-19T15:01:08.651Z,18.43
2017-09-19T15:03:36.035Z,18.44
2017-09-19T15:06:03.938Z,18.46
2017-09-19T15:08:31.081Z,18.53
2017-09-19T15:10:58.275Z,18.51
2017-09-19T15:13:25.440Z,18.47
2017-09-19T15:15:52.590Z,18.45
2017-09-19T15:18:19.876Z,18.43
2017-09-19T15:20:47.027Z,18.41
2017-09-19T15:23:14.510Z,18.40
2017-09-19T15:25:41.645Z,18.38
2017-09-19T15:28:08.804Z,18.38
2017-09-19T15:30:35.958Z,18.36
2017-09-19T15:33:03.093Z,18.36
2017-09-19T15:35:30.252Z,18.35
2017-09-19T15:37:57.391Z,18.35
2017-09-19T15:40:24.546Z,18.34
2017-09-19T15:42:51.900Z,18.33
2017-09-19T15:45:19.041Z,18.34
2017-09-19T15:47:46.189Z,18.33
2017-09-19T15:50:13.349Z,18.33
2017-09-19T15:52:40.520Z,18.33
2017-09-19T15:55:07.676Z,18.32
2017-09-19T15:57:34.809Z,18.32
2017-09-19T16:00:01.955Z,18.31
2017-09-19T16:02:29.090Z,18.31
2017-09-19T16:04:56.224Z,18.31
2017-09-19T16:07:23.392Z,18.33
2017-09-19T16:09:50.638Z,18.34
2017-09-19T16:12:18.865Z,18.35
2017-09-19T16:14:46.116Z,18.35
2017-09-19T16:17:13.259Z,18.35
2017-09-19T16:19:40.397Z,18.35
2017-09-19T16:22:07.538Z,18.34
2017-09-19T16:24:34.691Z,18.34
2017-09-19T16:27:01.844Z,18.34
2017-09-19T16:29:28.990Z,18.33
2017-09-19T16:31:56.147Z,18.32
2017-09-19T16:34:23.296Z,18.33
2017-09-19T16:36:50.457Z,18.32
2017-09-19T16:39:17.611Z,18.32
2017-09-19T16:41:44.785Z,18.31
2017-09-19T16:44:13.562Z,18.32
2017-09-19T16:46:40.777Z,18.31
2017-09-19T16:49:07.958Z,18.31
2017-09-19T16:51:35.139Z,18.31
2017-09-19T16:54:02.312Z,18.31
2017-09-19T16:56:29.454Z,18.30
2017-09-19T16:58:56.594Z,18.31
2017-09-19T17:01:23.742Z,18.30
2017-09-19T17:03:50.893Z,18.30
2017-09-19T17:06:18.037Z,18.30
2017-09-19T17:08:45.201Z,18.30
2017-09-19T17:11:12.346Z,18.30
2017-09-19T17:13:39.505Z,18.30
2017-09-19T17:16:06.670Z,18.29
2017-09-19T17:18:33.826Z,18.29
2017-09-19T17:21:00.983Z,18.29
2017-09-19T17:23:28.221Z,18.29
2017-09-19T17:25:55.384Z,18.28
2017-09-19T17:28:22.529Z,18.29
2017-09-19T17:30:49.693Z,18.28
2017-09-19T17:33:16.843Z,18.28
2017-09-19T17:35:44.012Z,18.29
2017-09-19T17:38:11.171Z,18.29
2017-09-19T17:40:38.319Z,18.28
2017-09-19T17:43:05.625Z,18.28
2017-09-19T17:45:32.765Z,18.28
2017-09-19T17:47:59.928Z,18.28
2017-09-19T17:50:27.070Z,18.28
2017-09-19T17:52:54.233Z,18.28
2017-09-19T17:55:21.396Z,18.27
2017-09-19T17:57:48.560Z,18.27
2017-09-19T18:00:15.702Z,18.27
2017-09-19T18:02:42.859Z,18.27
2017-09-19T18:05:10.013Z,18.27
2017-09-19T18:07:37.183Z,18.28
2017-09-19T18:10:05.102Z,18.27
2017-09-19T18:12:32.264Z,18.27
2017-09-19T18:14:59.421Z,18.27
2017-09-19T18:17:26.689Z,18.27
2017-09-19T18:19:53.842Z,18.26
2017-09-19T18:22:21.010Z,18.27
2017-09-19T18:24:48.929Z,18.26
2017-09-19T18:27:16.096Z,18.27
2017-09-19T18:29:43.326Z,18.26
2017-09-19T18:32:10.478Z,18.26
2017-09-19T18:34:37.674Z,18.26
2017-09-19T18:37:06.071Z,18.27
2017-09-19T18:39:34.005Z,18.26
2017-09-19T18:42:01.311Z,18.26
2017-09-19T18:44:28.457Z,18.26
2017-09-19T18:46:55.624Z,18.26
2017-09-19T18:49:22.793Z,18.26
2017-09-19T18:51:49.960Z,18.26
2017-09-19T18:54:17.130Z,18.26
2017-09-19T18:56:45.812Z,18.26
2017-09-19T18:59:13.677Z,18.26
2017-09-19T19:01:42.267Z,18.25
2017-09-19T19:04:10.675Z,18.25
2017-09-19T19:06:38.140Z,18.25
2017-09-19T19:09:05.326Z,18.25
2017-09-19T19:11:32.647Z,18.25
2017-09-19T19:13:59.808Z,18.25
2017-09-19T19:16:28.078Z,18.25
2017-09-19T19:18:55.726Z,18.25
2017-09-19T19:21:22.922Z,18.25
2017-09-19T19:23:50.844Z,18.25
2017-09-19T19:26:19.327Z,18.24
2017-09-19T19:28:47.814Z,18.24
2017-09-19T19:31:16.542Z,18.25
2017-09-19T19:33:43.775Z,18.25
2017-09-19T19:36:11.321Z,18.24
2017-09-19T19:38:38.889Z,18.25
2017-09-19T19:41:06.528Z,18.25
2017-09-19T19:43:34.854Z,18.24
2017-09-19T19:46:02.073Z,18.25
2017-09-19T19:48:29.314Z,18.24
2017-09-19T19:50:56.520Z,18.25
2017-09-19T19:53:23.895Z,18.26
2017-09-19T19:55:51.055Z,18.25
2017-09-19T19:58:18.236Z,18.25
2017-09-19T20:00:45.431Z,18.25
2017-09-19T20:03:13.542Z,18.25
2017-09-19T20:05:41.965Z,18.24
2017-09-19T20:08:09.907Z,18.24
2017-09-19T20:10:37.428Z,18.24
2017-09-19T20:13:04.612Z,18.25
2017-09-19T20:15:32.121Z,18.25
2017-09-19T20:17:59.290Z,18.24
2017-09-19T20:20:26.663Z,18.24
2017-09-19T20:22:53.810Z,18.24
2017-09-19T20:25:21.414Z,18.24
2017-09-19T20:27:48.616Z,18.23
2017-09-19T20:30:15.754Z,18.23
2017-09-19T20:32:42.918Z,18.24
2017-09-19T20:35:10.177Z,18.24
2017-09-19T20:37:37.635Z,18.23
2017-09-19T20:40:04.905Z,18.24
2017-09-19T20:42:34.201Z,18.24
2017-09-19T20:45:01.525Z,18.25
2017-09-19T20:47:28.685Z,18.25
2017-09-19T20:49:55.834Z,18.26
2017-09-19T20:52:23.769Z,18.25
2017-09-19T20:54:50.963Z,18.25
2017-09-19T20:57:18.179Z,18.25
2017-09-19T20:59:46.273Z,18.24
2017-09-19T21:02:13.459Z,18.24
2017-09-19T21:04:46.115Z,18.24
2017-09-19T21:07:18.961Z,18.24
2017-09-19T21:09:51.779Z,18.24
2017-09-19T21:12:24.542Z,18.24
2017-09-19T21:14:57.318Z,18.23
2017-09-19T21:17:30.789Z,18.24
2017-09-19T21:19:58.346Z,18.24
2017-09-19T21:22:25.654Z,18.23
2017-09-19T21:24:52.963Z,18.23
2017-09-19T21:27:20.115Z,18.23
2017-09-19T21:29:47.719Z,18.23
2017-09-19T21:32:15.118Z,18.23
2017-09-19T21:34:42.270Z,18.23
2017-09-19T21:37:09.431Z,18.23
2017-09-19T21:39:36.623Z,18.23
2017-09-19T21:42:03.785Z,18.23
2017-09-19T21:44:30.963Z,18.23
2017-09-19T21:46:58.125Z,18.23
2017-09-19T21:49:26.052Z,18.24
2017-09-19T21:51:53.198Z,18.24
2017-09-19T21:54:20.358Z,18.23
2017-09-19T21:56:47.522Z,18.23
2017-09-19T21:59:14.700Z,18.23
2017-09-19T22:01:41.846Z,18.23
2017-09-19T22:04:09.061Z,18.24
2017-09-19T22:06:36.268Z,18.24
2017-09-19T22:09:03.916Z,18.24
2017-09-19T22:11:31.262Z,18.23
2017-09-19T22:13:58.880Z,18.23
2017-09-19T22:16:28.108Z,18.23
2017-09-19T22:18:56.296Z,18.23
2017-09-19T22:21:24.933Z,18.23
2017-09-19T22:23:52.616Z,18.23
2017-09-19T22:26:21.214Z,18.23
2017-09-19T22:28:48.405Z,18.23
2017-09-19T22:31:16.522Z,18.23
2017-09-19T22:33:44.835Z,18.23
2017-09-19T22:36:12.814Z,18.23
2017-09-19T22:38:40.125Z,18.22
2017-09-19T22:41:07.698Z,18.23
2017-09-19T22:43:35.587Z,18.22
2017-09-19T22:46:02.767Z,18.23
2017-09-19T22:48:30.041Z,18.23
2017-09-19T22:50:57.200Z,18.24
2017-09-19T22:53:24.403Z,18.23
2017-09-19T22:55:51.541Z,18.22
2017-09-19T22:58:18.700Z,18.23
2017-09-19T23:00:45.857Z,18.23
2017-09-19T23:03:12.996Z,18.23
2017-09-19T23:05:40.143Z,18.22
2017-09-19T23:08:07.290Z,18.22
2017-09-19T23:10:34.451Z,18.22
2017-09-19T23:13:02.363Z,18.23
2017-09-19T23:15:29.521Z,18.23
2017-09-19T23:17:56.679Z,18.22
2017-09-19T23:20:23.888Z,18.22
2017-09-19T23:22:51.807Z,18.22
2017-09-19T23:25:18.942Z,18.23
2017-09-19T23:27:46.100Z,18.23
2017-09-19T23:30:13.242Z,18.23
2017-09-19T23:32:40.400Z,18.23
2017-09-19T23:35:07.580Z,18.22
2017-09-19T23:37:34.749Z,18.22
2017-09-19T23:40:01.925Z,18.22
2017-09-19T23:42:29.100Z,18.22
2017-09-19T23:44:56.256Z,18.23
2017-09-19T23:47:23.397Z,18.23
2017-09-19T23:49:50.556Z,18.23
2017-09-19T23:52:17.694Z,18.22
2017-09-19T23:54:44.852Z,18.23
2017-09-19T23:57:12.015Z,18.22
2017-09-19T23:59:39.181Z,18.23
